createdAt,value
2023-01-04T00:00:01.148Z,18.50
2023-01-04T00:05:05.805Z,15.90
2023-01-04T00:10:09.127Z,17.80
2023-01-04T00:15:12.288Z,16.70
2023-01-04T00:20:15.427Z,17.70
2023-01-04T00:25:18.625Z,21.20
2023-01-04T00:30:21.779Z,19.70
2023-01-04T00:35:44.726Z,18.50
2023-01-04T00:40:48.512Z,18.10
2023-01-04T00:45:51.731Z,16.20
2023-01-04T00:50:55.044Z,19.00
2023-01-04T00:56:01.889Z,17.90
2023-01-04T01:01:07.124Z,20.80
2023-01-04T01:06:10.822Z,19.50
2023-01-04T01:11:14.175Z,18.80
2023-01-04T01:16:44.400Z,20.50
2023-01-04T01:21:44.406Z,19.50
2023-01-04T01:26:47.592Z,19.30
2023-01-04T01:31:51.002Z,19.20
2023-01-04T01:36:54.408Z,21.30
2023-01-04T01:41:57.744Z,18.90
2023-01-04T01:47:01.619Z,18.30
2023-01-04T01:52:14.195Z,18.40
2023-01-04T01:57:22.775Z,22.40
2023-01-04T02:02:26.050Z,17.60
2023-01-04T02:07:31.517Z,18.30
2023-01-04T02:12:34.725Z,20.80
2023-01-04T02:18:21.559Z,16.00
2023-01-04T02:23:43.780Z,20.50
2023-01-04T02:28:53.022Z,19.10
2023-01-04T02:34:13.193Z,20.00
2023-01-04T02:39:54.196Z,18.90
2023-01-04T02:45:27.228Z,23.80
2023-01-04T02:50:33.856Z,24.40
2023-01-04T02:55:48.532Z,22.50
2023-01-04T03:01:46.430Z,24.30
2023-01-04T03:07:08.139Z,19.80
2023-01-04T03:12:33.530Z,21.70
2023-01-04T03:17:45.622Z,27.50
2023-01-04T03:23:16.732Z,23.30
2023-01-04T03:28:43.697Z,21.40
2023-01-04T03:34:06.200Z,23.20
2023-01-04T03:39:57.616Z,22.10
2023-01-04T03:45:35.010Z,22.10
2023-01-04T03:50:57.340Z,21.80
2023-01-04T03:56:11.094Z,25.90
2023-01-04T04:01:14.730Z,23.70
2023-01-04T04:06:48.915Z,24.50
2023-01-04T04:11:52.097Z,22.80
2023-01-04T04:16:55.335Z,21.60
2023-01-04T04:21:58.583Z,24.80
2023-01-04T04:27:01.715Z,23.70
2023-01-04T04:32:05.205Z,23.00
2023-01-04T04:37:09.546Z,22.40
2023-01-04T04:42:12.777Z,26.70
2023-01-04T04:47:15.970Z,23.20
2023-01-04T04:52:19.096Z,21.60
2023-01-04T04:57:22.374Z,21.40
2023-01-04T05:02:25.545Z,23.70
2023-01-04T05:07:28.902Z,24.30
2023-01-04T05:12:55.792Z,24.90
2023-01-04T05:18:01.578Z,23.30
2023-01-04T05:23:05.951Z,24.50
2023-01-04T05:28:09.243Z,26.30
2023-01-04T05:33:12.605Z,24.40
2023-01-04T05:38:17.089Z,24.20
2023-01-04T05:43:21.873Z,24.80
2023-01-04T05:48:25.537Z,23.10
2023-01-04T05:53:28.644Z,26.70
2023-01-04T05:58:31.742Z,27.90
2023-01-04T06:03:35.139Z,28.50
2023-01-04T06:08:38.358Z,30.20
2023-01-04T06:13:41.528Z,31.40
2023-01-04T06:18:44.658Z,27.90
2023-01-04T06:23:47.799Z,30.40
2023-01-04T06:28:50.897Z,28.60
2023-01-04T06:33:54.120Z,30.20
2023-01-04T06:38:58.936Z,32.50
2023-01-04T06:44:02.792Z,29.50
2023-01-04T06:49:05.933Z,32.90
2023-01-04T06:54:12.088Z,39.20
2023-01-04T06:59:15.264Z,37.20
2023-01-04T07:04:18.580Z,36.10
2023-01-04T07:09:21.772Z,32.10
2023-01-04T07:14:24.897Z,33.80
2023-01-04T07:19:28.120Z,37.50
2023-01-04T07:24:31.564Z,34.80
2023-01-04T07:29:34.710Z,41.00
2023-01-04T07:34:39.618Z,39.10
2023-01-04T07:39:44.140Z,39.00
2023-01-04T07:44:47.268Z,48.00
2023-01-04T07:49:50.423Z,45.30
2023-01-04T07:54:54.124Z,38.10
2023-01-04T07:59:57.293Z,44.70
2023-01-04T08:05:00.634Z,46.20
2023-01-04T08:10:04.170Z,47.00
2023-01-04T08:15:07.708Z,50.70
2023-01-04T08:20:26.575Z,48.20
2023-01-04T08:25:29.728Z,47.80
2023-01-04T08:30:38.529Z,47.20
2023-01-04T08:35:41.848Z,46.60
2023-01-04T08:41:00.360Z,48.60
2023-01-04T08:46:08.853Z,43.60
2023-01-04T08:51:15.865Z,50.50
2023-01-04T08:56:19.026Z,45.40
2023-01-04T09:01:22.339Z,50.60
2023-01-04T09:06:26.311Z,43.70
2023-01-04T09:11:29.541Z,52.50
2023-01-04T09:16:32.748Z,42.60
2023-01-04T09:21:36.198Z,39.40
2023-01-04T09:26:39.388Z,40.20
2023-01-04T09:31:42.578Z,37.20
2023-01-04T09:36:47.215Z,31.40
2023-01-04T09:42:06.139Z,36.80
2023-01-04T09:47:19.701Z,34.30
2023-01-04T09:52:43.805Z,32.00
2023-01-04T09:57:56.540Z,32.40
2023-01-04T10:03:15.755Z,32.80
2023-01-04T10:08:20.457Z,36.40
2023-01-04T10:14:01.439Z,31.50
2023-01-04T10:19:50.487Z,32.50
2023-01-04T10:24:38.573Z,29.50
2023-01-04T10:30:07.715Z,29.10
2023-01-04T10:35:23.143Z,27.00
2023-01-04T10:40:29.489Z,26.70
2023-01-04T10:45:57.170Z,29.50
2023-01-04T10:51:09.854Z,31.90
2023-01-04T10:56:39.502Z,32.60
2023-01-04T11:01:48.754Z,32.30
2023-01-04T11:07:25.782Z,34.40
2023-01-04T11:12:29.046Z,26.90
2023-01-04T11:17:33.257Z,29.40
2023-01-04T11:22:44.345Z,35.00
2023-01-04T11:27:56.832Z,35.40
2023-01-04T11:38:12.059Z,31.50
2023-01-04T11:43:18.948Z,31.70
2023-01-04T11:48:40.834Z,32.40
2023-01-04T11:53:44.651Z,35.10
2023-01-04T11:59:19.202Z,33.10
2023-01-04T12:04:45.984Z,35.80
2023-01-04T12:09:51.914Z,37.80
2023-01-04T12:14:55.786Z,34.60
2023-01-04T12:20:10.698Z,31.60
2023-01-04T12:25:36.795Z,33.90
2023-01-04T12:30:46.499Z,34.90
2023-01-04T12:35:58.721Z,39.50
2023-01-04T12:41:02.209Z,32.90
2023-01-04T12:47:00.479Z,36.20
2023-01-04T12:52:31.993Z,35.90
2023-01-04T12:57:37.562Z,34.10
2023-01-04T13:02:52.225Z,37.00
2023-01-04T13:08:01.226Z,36.20
2023-01-04T13:13:19.555Z,49.00
2023-01-04T13:18:41.805Z,38.00
2023-01-04T13:23:54.932Z,37.40
2023-01-04T13:29:20.758Z,35.80
2023-01-04T13:34:34.633Z,40.10
2023-01-04T13:39:47.490Z,42.30
2023-01-04T13:50:31.945Z,34.50
2023-01-04T13:55:57.031Z,116.00
2023-01-04T14:01:06.739Z,36.50
2023-01-04T14:06:50.508Z,98.00
2023-01-04T14:12:26.625Z,46.70
2023-01-04T14:17:48.647Z,36.90
2023-01-04T14:22:57.240Z,81.20
2023-01-04T14:28:19.186Z,54.90
2023-01-04T14:33:30.308Z,32.00
2023-01-04T14:38:57.553Z,35.20
2023-01-04T14:44:00.578Z,31.50
2023-01-04T14:49:04.190Z,37.00
2023-01-04T14:55:12.865Z,31.80
2023-01-04T15:00:39.871Z,28.10
2023-01-04T15:05:51.908Z,29.60
2023-01-04T15:11:20.063Z,40.60
2023-01-04T15:16:23.416Z,35.90
2023-01-04T15:21:26.708Z,40.90
2023-01-04T15:26:30.590Z,45.10
2023-01-04T15:31:38.940Z,36.40
2023-01-04T15:36:43.050Z,39.40
2023-01-04T15:42:04.981Z,36.90
2023-01-04T15:47:08.241Z,35.60
2023-01-04T15:52:11.651Z,36.60
2023-01-04T15:57:14.811Z,26.10
2023-01-04T16:02:18.104Z,26.30
2023-01-04T16:07:21.610Z,24.70
2023-01-04T16:12:56.674Z,24.80
2023-01-04T16:18:00.272Z,23.80
2023-01-04T16:23:03.470Z,19.30
2023-01-04T16:28:40.080Z,20.10
2023-01-04T16:47:10.561Z,14.60
2023-01-04T16:52:16.439Z,17.60
2023-01-04T16:58:19.317Z,14.90
2023-01-04T17:30:43.215Z,15.10
2023-01-04T17:36:23.254Z,12.60
2023-01-04T17:41:28.576Z,13.70
2023-01-04T17:46:34.832Z,11.50
2023-01-04T17:51:40.127Z,12.60
2023-01-04T17:56:43.476Z,13.70
2023-01-04T18:01:46.729Z,14.60
2023-01-04T18:06:49.983Z,11.40
2023-01-04T18:11:53.397Z,12.40
2023-01-04T18:16:57.636Z,11.30
2023-01-04T18:22:01.825Z,14.80
2023-01-04T18:27:23.795Z,11.20
2023-01-04T18:32:28.154Z,12.10
2023-01-04T18:37:35.977Z,11.30
2023-01-04T18:42:39.213Z,13.50
2023-01-04T18:47:43.000Z,12.00
2023-01-04T18:52:46.206Z,11.70
2023-01-04T18:57:49.845Z,9.90
2023-01-04T19:02:53.097Z,12.20
2023-01-04T19:07:56.668Z,7.90
2023-01-04T19:12:59.812Z,9.80
2023-01-04T19:18:02.954Z,9.40
2023-01-04T19:23:07.835Z,8.70
2023-01-04T19:28:12.538Z,9.30
2023-01-04T19:33:16.500Z,9.50
2023-01-04T19:38:19.746Z,9.60
2023-01-04T19:43:22.971Z,14.10
2023-01-04T19:48:26.623Z,12.00
2023-01-04T19:53:29.894Z,12.10
2023-01-04T19:58:33.137Z,16.10
2023-01-04T20:03:36.372Z,11.90
2023-01-04T20:08:40.683Z,10.00
2023-01-04T20:13:43.843Z,11.80
2023-01-04T20:18:47.099Z,8.20
2023-01-04T20:23:50.576Z,9.00
2023-01-04T20:28:53.708Z,9.30
2023-01-04T20:33:57.229Z,8.70
2023-01-04T20:39:02.551Z,8.30
2023-01-04T20:44:05.776Z,9.30
2023-01-04T20:49:08.978Z,10.00
2023-01-04T20:54:12.211Z,7.30
2023-01-04T20:59:15.336Z,8.90
2023-01-04T21:04:18.585Z,9.00
2023-01-04T21:09:21.765Z,6.90
2023-01-04T21:14:25.166Z,8.20
2023-01-04T21:19:28.313Z,8.60
2023-01-04T21:24:33.620Z,7.90
2023-01-04T21:29:36.815Z,11.30
2023-01-04T21:34:40.051Z,9.30
2023-01-04T21:39:43.170Z,10.50
2023-01-04T21:44:46.291Z,9.30
2023-01-04T21:49:50.810Z,7.70
2023-01-04T21:54:54.195Z,8.30
2023-01-04T21:59:57.389Z,7.50
2023-01-04T22:05:00.989Z,7.10
2023-01-04T22:10:04.752Z,7.40
2023-01-04T22:15:08.342Z,7.60
2023-01-04T22:20:11.788Z,7.40
2023-01-04T22:25:15.225Z,7.20
2023-01-04T22:30:18.437Z,5.90
2023-01-04T22:35:22.411Z,6.20
2023-01-04T22:40:25.550Z,5.70
2023-01-04T22:45:28.739Z,5.80
2023-01-04T22:50:32.218Z,6.30
2023-01-04T22:56:17.010Z,6.30
2023-01-04T23:01:05.719Z,6.10
2023-01-04T23:06:12.264Z,9.40
2023-01-04T23:11:17.642Z,5.60
2023-01-04T23:16:26.184Z,5.80
2023-01-04T23:21:34.634Z,6.40
2023-01-04T23:26:37.931Z,7.00
2023-01-04T23:31:41.584Z,6.70
2023-01-04T23:36:44.804Z,7.20
2023-01-04T23:41:48.163Z,7.40
2023-01-04T23:46:57.450Z,7.70
2023-01-04T23:52:01.518Z,5.70
2023-01-04T23:57:05.062Z,7.00
